Time;durP1;ratioP1;P1;durP2;ratioP2;P2;SDS_P1;SDS_P2;PMS_P1;PMS_P2;Temp;Humidity;BMP_temperature;BMP_pressure;BME280_temperature;BME280_humidity;BME280_pressure;Samples;Min_cycle;Max_cycle;Signal;HPM_P1;HPM_P2
2019/08/14 00:01:41;;;;;;;2.6;2.2;;;;;;;;;;;;;
2019/08/14 00:04:02;;;;;;;3.1;2.3;;;;;;;;;;;;;
2019/08/14 00:06:26;;;;;;;3.2;2.4;;;;;;;;;;;;;
2019/08/14 00:08:51;;;;;;;3.8;2.5;;;;;;;;;;;;;
2019/08/14 00:11:17;;;;;;;4.7;2.6;;;;;;;;;;;;;
2019/08/14 00:13:50;;;;;;;4;2.6;;;;;;;;;;;;;
2019/08/14 00:16:06;;;;;;;4.7;2.8;;;;;;;;;;;;;
2019/08/14 00:18:31;;;;;;;3.7;2.4;;;;;;;;;;;;;
2019/08/14 00:20:57;;;;;;;2.6;2.4;;;;;;;;;;;;;
2019/08/14 00:23:22;;;;;;;4.5;2.4;;;;;;;;;;;;;
2019/08/14 00:25:47;;;;;;;3.7;2.4;;;;;;;;;;;;;
2019/08/14 00:28:12;;;;;;;3.6;2.4;;;;;;;;;;;;;
2019/08/14 00:30:37;;;;;;;4.3;2.6;;;;;;;;;;;;;
2019/08/14 00:33:02;;;;;;;3.5;2.5;;;;;;;;;;;;;
2019/08/14 00:35:27;;;;;;;3.9;2.7;;;;;;;;;;;;;
2019/08/14 00:37:52;;;;;;;4;2.7;;;;;;;;;;;;;
2019/08/14 00:40:17;;;;;;;3.7;2.7;;;;;;;;;;;;;
2019/08/14 00:42:42;;;;;;;4.3;2.6;;;;;;;;;;;;;
2019/08/14 00:45:08;;;;;;;5.2;2.7;;;;;;;;;;;;;
2019/08/14 00:47:33;;;;;;;4.6;2.9;;;;;;;;;;;;;
2019/08/14 00:49:58;;;;;;;4.6;2.8;;;;;;;;;;;;;
2019/08/14 00:52:23;;;;;;;4.7;3.2;;;;;;;;;;;;;
2019/08/14 00:54:48;;;;;;;5.1;3.3;;;;;;;;;;;;;
2019/08/14 00:57:13;;;;;;;3.4;2.8;;;;;;;;;;;;;
2019/08/14 00:59:39;;;;;;;3.6;3.3;;;;;;;;;;;;;
2019/08/14 01:02:23;;;;;;;4.7;3.5;;;;;;;;;;;;;
2019/08/14 01:04:32;;;;;;;4.3;3;;;;;;;;;;;;;
2019/08/14 01:06:54;;;;;;;4;3.3;;;;;;;;;;;;;
2019/08/14 01:09:19;;;;;;;4.3;3.5;;;;;;;;;;;;;
2019/08/14 01:11:44;;;;;;;5.6;3.6;;;;;;;;;;;;;
2019/08/14 01:14:09;;;;;;;4.6;3.9;;;;;;;;;;;;;
2019/08/14 01:16:34;;;;;;;4.4;3.8;;;;;;;;;;;;;
2019/08/14 01:18:59;;;;;;;4.7;3.9;;;;;;;;;;;;;
2019/08/14 01:21:24;;;;;;;6.4;4.1;;;;;;;;;;;;;
2019/08/14 01:23:49;;;;;;;5.6;4;;;;;;;;;;;;;
2019/08/14 01:26:15;;;;;;;7.3;4.4;;;;;;;;;;;;;
2019/08/14 01:28:40;;;;;;;6.5;4.7;;;;;;;;;;;;;
2019/08/14 01:31:05;;;;;;;5;4.5;;;;;;;;;;;;;
2019/08/14 01:33:30;;;;;;;5.8;4.6;;;;;;;;;;;;;
2019/08/14 01:35:55;;;;;;;5.7;4.7;;;;;;;;;;;;;
2019/08/14 01:38:20;;;;;;;6.7;5;;;;;;;;;;;;;
2019/08/14 01:40:45;;;;;;;6.5;4.9;;;;;;;;;;;;;
2019/08/14 01:43:10;;;;;;;6.4;4.9;;;;;;;;;;;;;
2019/08/14 01:45:35;;;;;;;6.8;5.1;;;;;;;;;;;;;
2019/08/14 01:48:00;;;;;;;6.1;5;;;;;;;;;;;;;
2019/08/14 01:50:25;;;;;;;6.1;5.2;;;;;;;;;;;;;
2019/08/14 01:52:50;;;;;;;6.5;5.5;;;;;;;;;;;;;
2019/08/14 01:55:16;;;;;;;7.5;5.1;;;;;;;;;;;;;
2019/08/14 01:57:41;;;;;;;6.9;5.2;;;;;;;;;;;;;
2019/08/14 02:00:08;;;;;;;6.9;5.3;;;;;;;;;;;;;
2019/08/14 02:02:48;;;;;;;7;5.4;;;;;;;;;;;;;
2019/08/14 02:04:59;;;;;;;6.6;5.3;;;;;;;;;;;;;
2019/08/14 02:07:21;;;;;;;5.8;5.3;;;;;;;;;;;;;
2019/08/14 02:09:46;;;;;;;6.9;5.5;;;;;;;;;;;;;
2019/08/14 02:12:11;;;;;;;5.8;5.2;;;;;;;;;;;;;
2019/08/14 02:14:37;;;;;;;6;5.1;;;;;;;;;;;;;
2019/08/14 02:17:02;;;;;;;6.6;5.3;;;;;;;;;;;;;
2019/08/14 02:19:27;;;;;;;7.4;6;;;;;;;;;;;;;
2019/08/14 02:21:52;;;;;;;6.3;5.5;;;;;;;;;;;;;
2019/08/14 02:24:17;;;;;;;7;5.4;;;;;;;;;;;;;
2019/08/14 02:26:42;;;;;;;6.3;5.7;;;;;;;;;;;;;
2019/08/14 02:29:07;;;;;;;8;5.8;;;;;;;;;;;;;
2019/08/14 02:31:33;;;;;;;7.6;5.8;;;;;;;;;;;;;
2019/08/14 02:33:58;;;;;;;8.5;6.4;;;;;;;;;;;;;
2019/08/14 02:36:23;;;;;;;7.9;6.2;;;;;;;;;;;;;
2019/08/14 02:38:48;;;;;;;9.4;6.5;;;;;;;;;;;;;
2019/08/14 02:41:13;;;;;;;6.8;6.2;;;;;;;;;;;;;
2019/08/14 02:43:38;;;;;;;7.4;6.2;;;;;;;;;;;;;
2019/08/14 02:46:03;;;;;;;6.8;5.5;;;;;;;;;;;;;
2019/08/14 02:48:29;;;;;;;7.3;5.7;;;;;;;;;;;;;
2019/08/14 02:50:54;;;;;;;7.5;5.8;;;;;;;;;;;;;
2019/08/14 02:53:19;;;;;;;6.7;5.8;;;;;;;;;;;;;
2019/08/14 02:55:44;;;;;;;6.4;5.7;;;;;;;;;;;;;
2019/08/14 02:58:09;;;;;;;6.4;5.8;;;;;;;;;;;;;
2019/08/14 03:00:34;;;;;;;8;6.3;;;;;;;;;;;;;
2019/08/14 03:02:59;;;;;;;7.6;6.3;;;;;;;;;;;;;
2019/08/14 03:05:24;;;;;;;7.3;6.3;;;;;;;;;;;;;
2019/08/14 03:07:49;;;;;;;9.4;6.8;;;;;;;;;;;;;
2019/08/14 03:10:14;;;;;;;6.6;5.9;;;;;;;;;;;;;
2019/08/14 03:12:39;;;;;;;7;6.2;;;;;;;;;;;;;
2019/08/14 03:15:05;;;;;;;9;6.1;;;;;;;;;;;;;
2019/08/14 03:17:30;;;;;;;7.2;6.2;;;;;;;;;;;;;
2019/08/14 03:19:55;;;;;;;7.6;6.1;;;;;;;;;;;;;
2019/08/14 03:22:20;;;;;;;9;6.6;;;;;;;;;;;;;
2019/08/14 03:24:45;;;;;;;6.6;5.9;;;;;;;;;;;;;
2019/08/14 03:27:10;;;;;;;10;6.6;;;;;;;;;;;;;
2019/08/14 03:29:35;;;;;;;7.9;6;;;;;;;;;;;;;
2019/08/14 03:32:00;;;;;;;8.5;6.2;;;;;;;;;;;;;
2019/08/14 03:34:25;;;;;;;8.1;6.8;;;;;;;;;;;;;
2019/08/14 03:36:50;;;;;;;8.1;6.4;;;;;;;;;;;;;
2019/08/14 03:39:15;;;;;;;7.5;6.5;;;;;;;;;;;;;
2019/08/14 03:41:40;;;;;;;6.9;6.2;;;;;;;;;;;;;
2019/08/14 03:44:06;;;;;;;7.8;6.4;;;;;;;;;;;;;
2019/08/14 03:46:31;;;;;;;10.4;6.5;;;;;;;;;;;;;
2019/08/14 03:48:56;;;;;;;7.2;6.4;;;;;;;;;;;;;
2019/08/14 03:51:21;;;;;;;6.6;6;;;;;;;;;;;;;
2019/08/14 03:53:47;;;;;;;7;6.3;;;;;;;;;;;;;
2019/08/14 03:56:11;;;;;;;7.7;6;;;;;;;;;;;;;
2019/08/14 03:58:37;;;;;;;7.2;6.2;;;;;;;;;;;;;
2019/08/14 04:02:27;;;;;;;9.1;6.6;;;;;;;13.49;92.30078;963.7347;;;;
2019/08/14 04:04:52;;;;;;;9.1;6.9;;;;;;;13.44;92.95215;963.7458;;;;
2019/08/14 04:07:17;;;;;;;8.3;7;;;;;;;13.54;92.73926;963.7626;;;;
2019/08/14 04:09:42;;;;;;;7.3;6.4;;;;;;;13.52;92.22754;963.8019;;;;
2019/08/14 04:12:07;;;;;;;9.9;7;;;;;;;13.35;92.33984;963.8164;;;;
2019/08/14 04:14:33;;;;;;;8.2;7.3;;;;;;;13.35;92.23535;963.8597;;;;
2019/08/14 04:16:58;;;;;;;7.5;6.7;;;;;;;13.41;92.05176;963.8075;;;;
2019/08/14 04:19:23;;;;;;;8.1;6.6;;;;;;;13.47;91.69434;963.8558;;;;
2019/08/14 04:21:48;;;;;;;8.1;7.2;;;;;;;13.44;91.29492;963.8374;;;;
2019/08/14 04:24:13;;;;;;;8.4;7;;;;;;;13.38;91.92871;963.8365;;;;
2019/08/14 04:26:38;;;;;;;7.4;6.7;;;;;;;13.37;92.48438;963.8111;;;;
2019/08/14 04:29:03;;;;;;;8;7.2;;;;;;;13.28;92.1875;963.8041;;;;
2019/08/14 04:31:28;;;;;;;8.6;7;;;;;;;13.32;92.54297;963.7947;;;;
2019/08/14 04:33:53;;;;;;;9.1;7.4;;;;;;;13.35;91.4707;963.8237;;;;
2019/08/14 04:36:18;;;;;;;7.9;7.1;;;;;;;13.33;91.56055;963.8111;;;;
2019/08/14 04:38:43;;;;;;;7.5;6.6;;;;;;;13.35;91.0332;963.782;;;;
2019/08/14 04:41:10;;;;;;;7;6.2;;;;;;;13.35;90.70703;963.7772;;;;
2019/08/14 04:43:33;;;;;;;6.8;6.1;;;;;;;13.39;90.31055;963.8472;;;;
2019/08/14 04:45:59;;;;;;;9.2;6.9;;;;;;;13.34;90.77637;963.796;;;;
2019/08/14 04:48:24;;;;;;;8.1;6.8;;;;;;;13.29;91.06836;963.8384;;;;
2019/08/14 04:50:49;;;;;;;8.1;6.5;;;;;;;13.39;90.25293;963.8209;;;;
2019/08/14 04:53:14;;;;;;;7.8;6.4;;;;;;;13.32;90.48145;963.8618;;;;
2019/08/14 04:55:39;;;;;;;8.1;6.3;;;;;;;13.32;90.45801;963.8544;;;;
2019/08/14 04:58:04;;;;;;;7.1;6.2;;;;;;;13.34;90.85547;963.8529;;;;
2019/08/14 05:00:29;;;;;;;9.1;6.5;;;;;;;13.38;90.81641;963.8717;;;;
2019/08/14 05:02:54;;;;;;;9.4;6.1;;;;;;;13.53;90.61816;963.9174;;;;
2019/08/14 05:05:19;;;;;;;8.8;6.3;;;;;;;13.49;90.49316;963.9018;;;;
2019/08/14 05:07:45;;;;;;;8.3;6;;;;;;;13.49;89.57813;963.8837;;;;
2019/08/14 05:10:10;;;;;;;9.6;6.3;;;;;;;13.4;90.87988;963.8894;;;;
2019/08/14 05:12:35;;;;;;;8.1;6;;;;;;;13.48;89.24023;963.8862;;;;
2019/08/14 05:15:00;;;;;;;9.3;6.4;;;;;;;13.48;90.42188;963.8527;;;;
2019/08/14 05:17:25;;;;;;;7.9;6;;;;;;;13.47;90.00293;963.8444;;;;
2019/08/14 05:19:50;;;;;;;7.3;6;;;;;;;13.63;88.51758;963.8466;;;;
2019/08/14 05:22:15;;;;;;;7.6;6;;;;;;;13.54;88.98438;963.8608;;;;
2019/08/14 05:24:40;;;;;;;6.7;5.2;;;;;;;13.69;87.82324;963.8401;;;;
2019/08/14 05:27:06;;;;;;;6.8;5.4;;;;;;;13.56;89.22168;963.8645;;;;
2019/08/14 05:29:31;;;;;;;7;5.6;;;;;;;13.72;89.29004;963.8593;;;;
2019/08/14 05:31:56;;;;;;;6.7;5.5;;;;;;;13.74;88.38867;963.8875;;;;
2019/08/14 05:34:21;;;;;;;8.4;5.6;;;;;;;13.8;88.73828;963.9097;;;;
2019/08/14 05:36:46;;;;;;;8.5;5.7;;;;;;;13.99;86.30371;963.8915;;;;
2019/08/14 05:39:11;;;;;;;9.4;5.7;;;;;;;13.9;88.03906;963.9092;;;;
2019/08/14 05:41:36;;;;;;;7.4;5.1;;;;;;;13.95;87.21289;963.9363;;;;
2019/08/14 05:44:01;;;;;;;9.4;5.5;;;;;;;13.91;87.20703;963.9595;;;;
2019/08/14 05:46:26;;;;;;;7.9;5.3;;;;;;;14.02;87.99316;963.9952;;;;
2019/08/14 05:48:52;;;;;;;6.5;4.9;;;;;;;14.11;85.98047;964.0447;;;;
2019/08/14 05:51:17;;;;;;;10;5.4;;;;;;;14.07;86.91309;964.0812;;;;
2019/08/14 05:53:42;;;;;;;9.6;5.3;;;;;;;14.16;86.53418;964.0995;;;;
2019/08/14 05:56:07;;;;;;;7.4;5.2;;;;;;;14.12;85.93555;964.177;;;;
2019/08/14 05:58:32;;;;;;;7;4.7;;;;;;;14.29;85.5166;964.192;;;;
2019/08/14 06:00:57;;;;;;;5.7;4.7;;;;;;;14.32;84.65332;964.1628;;;;
2019/08/14 06:03:22;;;;;;;5.3;4.3;;;;;;;14.51;83.59766;964.2325;;;;
2019/08/14 06:05:47;;;;;;;5.8;4.4;;;;;;;14.45;84.1084;964.2425;;;;
2019/08/14 06:08:12;;;;;;;6.1;4.7;;;;;;;14.46;84.33105;964.1941;;;;
2019/08/14 06:10:37;;;;;;;6;4.2;;;;;;;14.73;83.31543;964.2129;;;;
2019/08/14 06:13:03;;;;;;;6.8;4.5;;;;;;;14.73;82.45508;964.1801;;;;
2019/08/14 06:15:28;;;;;;;5.6;3.9;;;;;;;14.82;83.08691;964.1834;;;;
2019/08/14 06:17:53;;;;;;;6.3;4.6;;;;;;;14.75;82.78418;964.1976;;;;
2019/08/14 06:20:18;;;;;;;8.8;4.4;;;;;;;14.88;82.6123;964.1602;;;;
2019/08/14 06:22:43;;;;;;;5.2;4.1;;;;;;;15.13;81.42285;964.1436;;;;
2019/08/14 06:25:12;;;;;;;6.7;4.2;;;;;;;15.33;80.47266;964.1716;;;;
2019/08/14 06:27:37;;;;;;;4.6;3.8;;;;;;;15.3;80.71191;964.1755;;;;
2019/08/14 06:30:02;;;;;;;7.6;3.9;;;;;;;15.44;80.65527;964.1742;;;;
2019/08/14 06:32:27;;;;;;;7.4;6.3;;;;;;;15.34;80.59082;964.2134;;;;
2019/08/14 06:34:52;;;;;;;5;4.2;;;;;;;15.45;79.68066;964.1462;;;;
2019/08/14 06:37:17;;;;;;;4.7;4.1;;;;;;;15.56;78.88672;964.1619;;;;
2019/08/14 06:39:42;;;;;;;6;4;;;;;;;15.48;79.22168;964.2048;;;;
2019/08/14 06:42:07;;;;;;;6;4.2;;;;;;;15.45;80.33105;964.2637;;;;
2019/08/14 06:44:32;;;;;;;5.8;4.2;;;;;;;15.64;78.07324;964.239;;;;
2019/08/14 06:46:57;;;;;;;4.9;3.5;;;;;;;15.92;76.51465;964.2073;;;;
2019/08/14 06:49:22;;;;;;;5.7;3.6;;;;;;;15.8;76.6582;964.2346;;;;
2019/08/14 06:51:48;;;;;;;5.4;3.7;;;;;;;15.63;76.70898;964.2034;;;;
2019/08/14 06:54:13;;;;;;;5.1;3.6;;;;;;;15.72;76.80664;964.2519;;;;
2019/08/14 06:56:38;;;;;;;5.5;3;;;;;;;16.04;75.06641;964.231;;;;
2019/08/14 06:59:03;;;;;;;4.3;3.4;;;;;;;16.19;74.24219;964.2654;;;;
2019/08/14 07:01:28;;;;;;;6.1;3.1;;;;;;;16.25;73.5293;964.2319;;;;
2019/08/14 07:03:53;;;;;;;5.3;3.3;;;;;;;16.1;72.91113;964.2222;;;;
2019/08/14 07:06:18;;;;;;;4.9;3;;;;;;;16.07;73.86133;964.1883;;;;
2019/08/14 07:08:43;;;;;;;3.6;2.8;;;;;;;16.12;73.63574;964.1975;;;;
2019/08/14 07:11:08;;;;;;;3.9;2.6;;;;;;;16.26;72.99609;964.2155;;;;
2019/08/14 07:13:33;;;;;;;5.2;2.9;;;;;;;16.32;70.64941;964.2148;;;;
2019/08/14 07:15:58;;;;;;;5.3;2.6;;;;;;;16.42;70.59668;964.255;;;;
2019/08/14 07:18:23;;;;;;;4.6;2.9;;;;;;;16.39;70.46387;964.2408;;;;
2019/08/14 07:20:49;;;;;;;5.1;3;;;;;;;16.32;70.15918;964.2256;;;;
2019/08/14 07:23:14;;;;;;;4.5;2.7;;;;;;;16.34;70.2207;964.2908;;;;
2019/08/14 07:25:39;;;;;;;5.6;3.1;;;;;;;16.27;71.38672;964.2458;;;;
2019/08/14 07:28:04;;;;;;;5.6;3.5;;;;;;;16.31;70.46094;964.2635;;;;
2019/08/14 07:30:30;;;;;;;5.1;3.2;;;;;;;16.42;70.93457;964.2475;;;;
2019/08/14 07:32:55;;;;;;;4.6;2.7;;;;;;;16.43;71.0166;964.2903;;;;
2019/08/14 07:35:20;;;;;;;4.7;2.6;;;;;;;16.53;72.08301;964.3004;;;;
2019/08/14 07:37:45;;;;;;;3.1;2.2;;;;;;;16.76;68.33887;964.3344;;;;
2019/08/14 07:40:10;;;;;;;4.7;2.5;;;;;;;16.75;68.29102;964.3458;;;;
2019/08/14 07:42:35;;;;;;;4;2.2;;;;;;;16.78;67.26855;964.3577;;;;
2019/08/14 07:45:00;;;;;;;4.7;2.3;;;;;;;16.93;66.2627;964.3173;;;;
2019/08/14 07:47:25;;;;;;;4.6;2.6;;;;;;;16.92;65.14063;964.2911;;;;
2019/08/14 07:49:51;;;;;;;4.3;2.3;;;;;;;16.87;66.69727;964.2863;;;;
2019/08/14 07:52:16;;;;;;;4.5;2.1;;;;;;;16.9;69.27148;964.2681;;;;
2019/08/14 07:54:41;;;;;;;4.1;2.1;;;;;;;17.11;63.41602;964.2971;;;;
2019/08/14 07:57:06;;;;;;;3.4;1.8;;;;;;;17.32;60.83887;964.2711;;;;
2019/08/14 07:59:31;;;;;;;3.8;1.9;;;;;;;17.2;63.48828;964.2982;;;;
2019/08/14 08:01:56;;;;;;;5.2;2;;;;;;;17.35;62.43359;964.3354;;;;
2019/08/14 08:04:22;;;;;;;6.6;2.1;;;;;;;17.15;62.19531;964.3162;;;;
2019/08/14 08:06:47;;;;;;;4.4;2;;;;;;;17.22;62.90723;964.3647;;;;
2019/08/14 08:09:12;;;;;;;4.7;2.1;;;;;;;17.19;61.46289;964.312;;;;
2019/08/14 08:11:37;;;;;;;4.3;2.1;;;;;;;17.28;62.40039;964.322;;;;
2019/08/14 08:14:02;;;;;;;5.2;2.1;;;;;;;17.27;60.14258;964.3328;;;;
2019/08/14 08:16:27;;;;;;;3.3;1.7;;;;;;;17.19;62.12891;964.3005;;;;
2019/08/14 08:18:53;;;;;;;4.9;2;;;;;;;17.38;57.97363;964.3453;;;;
2019/08/14 08:21:18;;;;;;;5.2;1.9;;;;;;;17.44;54.63672;964.2892;;;;
2019/08/14 08:23:43;;;;;;;3.4;1.7;;;;;;;17.58;55.09863;964.317;;;;
2019/08/14 08:26:08;;;;;;;4.9;1.8;;;;;;;17.6;55.45117;964.3716;;;;
2019/08/14 08:28:33;;;;;;;3.5;1.8;;;;;;;17.74;54.29883;964.3765;;;;
2019/08/14 08:30:59;;;;;;;5;1.9;;;;;;;17.57;55.9502;964.3328;;;;
2019/08/14 08:33:24;;;;;;;2.8;1.7;;;;;;;17.78;54.4209;964.3494;;;;
2019/08/14 08:35:54;;;;;;;5.3;1.9;;;;;;;17.65;56.54688;964.3558;;;;
2019/08/14 08:38:19;;;;;;;6;1.8;;;;;;;17.84;52.60254;964.3881;;;;
2019/08/14 08:40:44;;;;;;;3.5;1.7;;;;;;;17.89;54.00293;964.3641;;;;
2019/08/14 08:43:10;;;;;;;3.7;1.8;;;;;;;17.78;55.98926;964.3543;;;;
2019/08/14 08:45:35;;;;;;;4.5;1.6;;;;;;;17.89;52.16406;964.3608;;;;
2019/08/14 08:48:00;;;;;;;3.9;1.8;;;;;;;18.21;52.13184;964.3549;;;;
2019/08/14 08:50:25;;;;;;;4.2;1.9;;;;;;;18.16;50.93262;964.3569;;;;
2019/08/14 08:52:50;;;;;;;3;1.5;;;;;;;18.22;50.30566;964.3245;;;;
2019/08/14 08:55:15;;;;;;;3.7;1.9;;;;;;;18.05;52.06641;964.4025;;;;
2019/08/14 08:57:40;;;;;;;4.3;1.8;;;;;;;18.1;52.97461;964.3596;;;;
2019/08/14 09:00:05;;;;;;;4.3;2.1;;;;;;;18.23;55.23828;964.3467;;;;
2019/08/14 09:02:30;;;;;;;3.8;1.7;;;;;;;18.35;55.99219;964.3909;;;;
2019/08/14 09:04:55;;;;;;;4.8;2.2;;;;;;;18.25;55.36914;964.3566;;;;
2019/08/14 09:07:20;;;;;;;4.6;2.2;;;;;;;18.21;55.65723;964.3508;;;;
2019/08/14 09:09:46;;;;;;;4.6;2.1;;;;;;;18.21;56.38379;964.3879;;;;
2019/08/14 09:12:11;;;;;;;4.8;2.1;;;;;;;18.43;57.2666;964.3594;;;;
2019/08/14 09:14:36;;;;;;;4;1.9;;;;;;;18.46;56.97852;964.3096;;;;
2019/08/14 09:17:01;;;;;;;3.1;1.9;;;;;;;18.44;58.5332;964.2388;;;;
2019/08/14 09:19:26;;;;;;;4.8;2.1;;;;;;;18.48;58.09375;964.2656;;;;
2019/08/14 09:21:51;;;;;;;3.6;1.9;;;;;;;18.72;56.8584;964.2149;;;;
2019/08/14 09:24:16;;;;;;;4.6;2.1;;;;;;;18.91;55.12402;964.2202;;;;
2019/08/14 09:26:41;;;;;;;4.2;2;;;;;;;18.8;56.35254;964.186;;;;
2019/08/14 09:29:06;;;;;;;5.1;2.1;;;;;;;18.84;56.00684;964.2112;;;;
2019/08/14 09:31:32;;;;;;;4.7;2.3;;;;;;;18.71;55.43945;964.1647;;;;
2019/08/14 09:33:57;;;;;;;5;2.3;;;;;;;18.57;56.60449;964.1298;;;;
2019/08/14 09:36:22;;;;;;;6.1;2;;;;;;;18.23;55.91797;964.1669;;;;
2019/08/14 09:38:47;;;;;;;4.4;2.1;;;;;;;18.16;56.8584;964.1473;;;;
2019/08/14 09:41:12;;;;;;;5.1;1.9;;;;;;;18.15;57.35938;964.1472;;;;
2019/08/14 09:43:37;;;;;;;4.6;2;;;;;;;18.3;53.32617;964.1484;;;;
2019/08/14 09:46:02;;;;;;;3.4;1.7;;;;;;;18.47;53.58105;964.1049;;;;
2019/08/14 09:48:27;;;;;;;5.8;2.2;;;;;;;18.82;53.31836;964.1207;;;;
2019/08/14 09:50:53;;;;;;;3.9;1.7;;;;;;;19.23;48.87305;964.0048;;;;
2019/08/14 09:53:18;;;;;;;4.3;1.8;;;;;;;19.18;46.69531;964.0233;;;;
2019/08/14 09:55:43;;;;;;;4.8;1.8;;;;;;;19.13;47.89844;964.0112;;;;
2019/08/14 09:58:08;;;;;;;3.6;1.7;;;;;;;19.1;49.0332;963.9866;;;;
2019/08/14 10:00:34;;;;;;;3.6;1.7;;;;;;;19.2;51.13379;964.0494;;;;
2019/08/14 10:02:59;;;;;;;3.4;1.8;;;;;;;19.14;50.73926;964.0375;;;;
2019/08/14 10:05:24;;;;;;;4.2;1.6;;;;;;;19.06;48.95801;964.0466;;;;
2019/08/14 10:07:49;;;;;;;5.3;1.7;;;;;;;19.22;48.2373;964.0179;;;;
2019/08/14 10:10:14;;;;;;;3;1.6;;;;;;;19.22;50.1377;963.9841;;;;
2019/08/14 10:12:39;;;;;;;3.8;1.6;;;;;;;19.17;48.01953;963.9942;;;;
2019/08/14 10:15:04;;;;;;;3.8;1.7;;;;;;;19.26;49.79199;963.9456;;;;
2019/08/14 10:17:29;;;;;;;5.5;2;;;;;;;19.34;49.68262;963.9691;;;;
2019/08/14 10:22:00;;;;;;;6.1;2;;;;;;;19.22;49.45703;963.885;;;;
2019/08/14 10:24:25;;;;;;;4.2;1.7;;;;;;;19.46;49.02734;963.8622;;;;
2019/08/14 10:26:50;;;;;;;3.5;1.8;;;;;;;19.33;49.89258;963.8486;;;;
2019/08/14 10:29:15;;;;;;;3.6;1.6;;;;;;;19.38;48.93457;963.8513;;;;
2019/08/14 10:31:40;;;;;;;3.9;1.7;;;;;;;19.34;49.96387;963.8293;;;;
2019/08/14 10:34:05;;;;;;;3.3;1.6;;;;;;;19.46;49.33203;963.7696;;;;
2019/08/14 10:36:30;;;;;;;3.9;1.7;;;;;;;19.59;48.16016;963.7609;;;;
2019/08/14 10:38:55;;;;;;;2.6;1.5;;;;;;;19.68;49.34473;963.7919;;;;
2019/08/14 10:41:20;;;;;;;3.7;1.6;;;;;;;19.52;46.67285;963.8484;;;;
2019/08/14 10:43:45;;;;;;;2.9;1.6;;;;;;;19.33;46.9209;963.8272;;;;
2019/08/14 10:46:11;;;;;;;3.6;1.8;;;;;;;19.49;46.44531;963.8148;;;;
2019/08/14 10:48:36;;;;;;;6.6;1.7;;;;;;;19.36;48.49902;963.8417;;;;
2019/08/14 10:51:01;;;;;;;3.7;1.6;;;;;;;19.56;45.80664;963.8209;;;;
2019/08/14 10:53:26;;;;;;;4.4;1.6;;;;;;;19.47;47.04199;963.7952;;;;
2019/08/14 10:55:51;;;;;;;3.2;1.5;;;;;;;19.64;45.76855;963.7589;;;;
2019/08/14 10:58:16;;;;;;;3.2;1.5;;;;;;;19.86;46.66113;963.7762;;;;
2019/08/14 11:00:41;;;;;;;3;1.7;;;;;;;19.94;46.64551;963.7933;;;;
2019/08/14 11:03:06;;;;;;;2.9;1.5;;;;;;;19.72;47.62207;963.8155;;;;
2019/08/14 11:05:31;;;;;;;4.8;1.9;;;;;;;19.87;47.93164;963.8198;;;;
2019/08/14 11:07:56;;;;;;;5.6;1.9;;;;;;;19.84;48.88086;963.8259;;;;
2019/08/14 11:10:21;;;;;;;3.6;1.5;;;;;;;19.69;46.79492;963.8333;;;;
2019/08/14 11:12:47;;;;;;;4.3;1.8;;;;;;;19.31;47.77734;963.843;;;;
2019/08/14 11:15:12;;;;;;;2.6;1.5;;;;;;;19.46;48.12207;963.7796;;;;
2019/08/14 11:17:37;;;;;;;2.9;1.6;;;;;;;19.56;49.65918;963.7324;;;;
2019/08/14 11:20:02;;;;;;;4.4;2.1;;;;;;;19.57;48.91016;963.7737;;;;
2019/08/14 11:22:27;;;;;;;4.6;1.8;;;;;;;19.72;47.65723;963.8353;;;;
2019/08/14 11:24:55;;;;;;;2.8;1.6;;;;;;;19.84;48.21094;963.7961;;;;
2019/08/14 11:28:03;;;;;;;3.2;1.5;;;;;;;20.08;49.29492;963.7896;;;;
2019/08/14 11:29:50;;;;;;;5.6;1.7;;;;;;;20.17;48.14063;963.7527;;;;
2019/08/14 11:32:10;;;;;;;4.5;1.5;;;;;;;20.07;47.30664;963.7711;;;;
2019/08/14 11:34:32;;;;;;;3;1.6;;;;;;;19.88;47.15625;963.7609;;;;
2019/08/14 11:36:57;;;;;;;2.9;1.7;;;;;;;19.91;47.11328;963.7623;;;;
2019/08/14 11:39:22;;;;;;;4.6;1.9;;;;;;;19.92;47.30176;963.7712;;;;
2019/08/14 11:41:48;;;;;;;3.9;1.8;;;;;;;19.94;46.56348;963.8031;;;;
2019/08/14 11:44:13;;;;;;;3.1;1.7;;;;;;;19.93;46.66797;963.7645;;;;
2019/08/14 11:46:38;;;;;;;3.6;1.6;;;;;;;20.3;48.00293;963.717;;;;
2019/08/14 11:49:03;;;;;;;4.5;1.8;;;;;;;20.47;47.01953;963.8203;;;;
2019/08/14 11:51:28;;;;;;;5;1.9;;;;;;;20.57;47.4541;963.8117;;;;
2019/08/14 11:53:53;;;;;;;8.2;2.2;;;;;;;20.41;46.04785;963.7564;;;;
2019/08/14 11:56:18;;;;;;;2.9;1.8;;;;;;;20.36;47.39648;963.7297;;;;
2019/08/14 11:58:43;;;;;;;5.3;1.9;;;;;;;19.98;47.10938;963.7333;;;;
2019/08/14 12:01:09;;;;;;;4.2;1.6;;;;;;;20.27;46.66797;963.6622;;;;
2019/08/14 12:03:34;;;;;;;3.9;1.6;;;;;;;20.94;49.46191;963.6567;;;;
2019/08/14 12:05:59;;;;;;;3.1;1.7;;;;;;;20.7;45.37109;963.6345;;;;
2019/08/14 12:08:24;;;;;;;3.6;1.7;;;;;;;20.88;44.36523;963.6153;;;;
2019/08/14 12:10:49;;;;;;;3.3;1.5;;;;;;;20.71;43.95996;963.6442;;;;
2019/08/14 12:13:14;;;;;;;2.7;1.4;;;;;;;20.46;43.66309;963.606;;;;
2019/08/14 12:15:40;;;;;;;2.6;1.3;;;;;;;20.69;45.05273;963.5417;;;;
2019/08/14 12:18:05;;;;;;;3.8;1.5;;;;;;;20.98;46.38965;963.6103;;;;
2019/08/14 12:20:30;;;;;;;2.4;1.5;;;;;;;21.38;45.94727;963.5229;;;;
2019/08/14 12:22:55;;;;;;;3.7;1.7;;;;;;;21.46;43.12402;963.55;;;;
2019/08/14 12:25:20;;;;;;;3.1;1.5;;;;;;;21.25;44.4248;963.4735;;;;
2019/08/14 12:27:45;;;;;;;2.5;1.4;;;;;;;20.99;43.89258;963.4634;;;;
2019/08/14 12:30:10;;;;;;;2.4;1.4;;;;;;;20.95;44.34961;963.4583;;;;
2019/08/14 12:32:36;;;;;;;2.4;1.5;;;;;;;20.74;43.84473;963.3911;;;;
2019/08/14 12:35:01;;;;;;;4.4;1.6;;;;;;;20.79;47.27832;963.3572;;;;
2019/08/14 12:37:26;;;;;;;3.2;1.6;;;;;;;20.76;45.17676;963.3427;;;;
2019/08/14 12:39:51;;;;;;;3.9;1.5;;;;;;;20.91;45.32227;963.2791;;;;
2019/08/14 12:42:16;;;;;;;3.8;1.5;;;;;;;20.68;45.89941;963.2495;;;;
2019/08/14 12:44:41;;;;;;;3.4;1.6;;;;;;;20.9;44.99121;963.2586;;;;
2019/08/14 12:47:06;;;;;;;3.2;1.4;;;;;;;21.17;44.08691;963.2567;;;;
2019/08/14 12:49:31;;;;;;;3.1;1.5;;;;;;;21.63;44.4043;963.2849;;;;
2019/08/14 12:51:56;;;;;;;2.4;1.5;;;;;;;22.09;43.34082;963.2475;;;;
2019/08/14 12:54:21;;;;;;;4;1.6;;;;;;;22.42;41.14941;963.2725;;;;
2019/08/14 12:56:46;;;;;;;3.3;1.5;;;;;;;22.45;43.2207;963.2287;;;;
2019/08/14 12:59:12;;;;;;;2.5;1.6;;;;;;;22.77;41.78613;963.2133;;;;
2019/08/14 13:01:37;;;;;;;2.8;1.5;;;;;;;22.83;40.74902;963.1987;;;;
2019/08/14 13:04:02;;;;;;;4;1.7;;;;;;;22.08;41.68457;963.1523;;;;
2019/08/14 13:06:27;;;;;;;3.5;1.4;;;;;;;21.55;40.96289;963.1552;;;;
2019/08/14 13:08:52;;;;;;;3.4;1.3;;;;;;;21.37;41.83105;963.1492;;;;
2019/08/14 13:11:18;;;;;;;3.8;1.4;;;;;;;21.34;41.66309;963.0524;;;;
2019/08/14 13:13:43;;;;;;;3;1.4;;;;;;;21.32;41.9082;963.0609;;;;
2019/08/14 13:16:08;;;;;;;3;1.4;;;;;;;21.51;41.90332;963.077;;;;
2019/08/14 13:18:33;;;;;;;2.9;1.5;;;;;;;21.87;41.37012;963.0611;;;;
2019/08/14 13:20:58;;;;;;;4.3;1.6;;;;;;;21.87;43.74316;963.0762;;;;
2019/08/14 13:23:23;;;;;;;2.4;1.3;;;;;;;22.1;39.25293;963.0745;;;;
2019/08/14 13:25:48;;;;;;;2.7;1.2;;;;;;;22.08;37.98633;963.012;;;;
2019/08/14 13:28:13;;;;;;;3;1.5;;;;;;;21.74;41.28711;962.998;;;;
2019/08/14 13:30:38;;;;;;;2.9;1.3;;;;;;;21.87;43.09375;962.9832;;;;
2019/08/14 13:33:04;;;;;;;2.2;1.1;;;;;;;22.31;40.00391;963.0364;;;;
2019/08/14 13:35:29;;;;;;;2;1.1;;;;;;;22.47;39.28516;963.0149;;;;
2019/08/14 13:37:54;;;;;;;2.6;1.4;;;;;;;22.2;38.74219;962.9824;;;;
2019/08/14 13:40:19;;;;;;;2.8;1.3;;;;;;;22.41;39.19727;962.9456;;;;
2019/08/14 13:42:44;;;;;;;2.3;1.3;;;;;;;22.84;39.81445;963.0031;;;;
2019/08/14 13:45:09;;;;;;;3.3;1.1;;;;;;;22.88;37.4873;962.9556;;;;
2019/08/14 13:47:35;;;;;;;3.1;1.3;;;;;;;22.44;38.34863;962.9475;;;;
2019/08/14 13:50:00;;;;;;;1.7;1.2;;;;;;;22;41.45313;962.9671;;;;
2019/08/14 13:52:25;;;;;;;4.1;1.5;;;;;;;21.73;39.57422;962.9128;;;;
2019/08/14 13:54:50;;;;;;;3.4;1.2;;;;;;;21.89;42.56445;962.9112;;;;
2019/08/14 13:57:15;;;;;;;3.1;1.2;;;;;;;22.37;40.35156;962.8025;;;;
2019/08/14 13:59:40;;;;;;;2.9;1.2;;;;;;;22.96;39.93262;962.7368;;;;
2019/08/14 14:02:05;;;;;;;4.1;1.5;;;;;;;22.95;38.25;962.7297;;;;
2019/08/14 14:04:31;;;;;;;2.7;1.3;;;;;;;23.01;39.17969;962.7358;;;;
2019/08/14 14:06:56;;;;;;;3.4;1.5;;;;;;;23.13;39.65137;962.7346;;;;
2019/08/14 14:09:21;;;;;;;1.8;1.1;;;;;;;23.08;39.18457;962.6542;;;;
2019/08/14 14:11:46;;;;;;;3.1;1.2;;;;;;;22.21;40.30176;962.6484;;;;
2019/08/14 14:14:11;;;;;;;2.8;1.2;;;;;;;22.31;39.87402;962.6602;;;;
2019/08/14 14:16:36;;;;;;;3.5;1.4;;;;;;;22.73;39.09473;962.6533;;;;
2019/08/14 14:19:02;;;;;;;3;1.4;;;;;;;22.74;39.36816;962.6041;;;;
2019/08/14 14:21:27;;;;;;;4.7;1.6;;;;;;;22.42;41.25488;962.663;;;;
2019/08/14 14:23:52;;;;;;;2.2;1.3;;;;;;;22.15;41.44238;962.652;;;;
2019/08/14 14:26:17;;;;;;;3.4;1.3;;;;;;;22.32;41.12695;962.6121;;;;
2019/08/14 14:28:42;;;;;;;3.2;1.4;;;;;;;22.65;44.93262;962.5237;;;;
2019/08/14 14:31:07;;;;;;;3.4;1.5;;;;;;;22.62;42.52832;962.5463;;;;
2019/08/14 14:33:33;;;;;;;3.1;1.4;;;;;;;22.7;39.31738;962.5117;;;;
2019/08/14 14:35:58;;;;;;;2.6;1.3;;;;;;;23.18;42.21484;962.5103;;;;
2019/08/14 14:38:23;;;;;;;1.8;1.3;;;;;;;23.34;41.4834;962.506;;;;
2019/08/14 14:40:49;;;;;;;3.6;1.8;;;;;;;23.75;35.87598;962.5449;;;;
2019/08/14 14:43:14;;;;;;;2.6;1.4;;;;;;;23.37;37.74121;962.4522;;;;
2019/08/14 14:45:39;;;;;;;3.3;1.5;;;;;;;23.17;37.80762;962.4647;;;;
2019/08/14 14:48:04;;;;;;;3.4;1.6;;;;;;;22.76;38.86133;962.4922;;;;
2019/08/14 14:50:29;;;;;;;2.8;1.7;;;;;;;22.45;38.08887;962.4861;;;;
2019/08/14 14:52:54;;;;;;;2.8;1.1;;;;;;;22.22;38.11719;962.4495;;;;
2019/08/14 14:55:19;;;;;;;2.3;1.1;;;;;;;22.19;39.30859;962.4426;;;;
2019/08/14 14:57:44;;;;;;;4.3;1.2;;;;;;;22.01;39.64648;962.5004;;;;
2019/08/14 15:00:10;;;;;;;2.2;1.3;;;;;;;21.83;41.73242;962.5039;;;;
2019/08/14 15:02:35;;;;;;;6.4;1.5;;;;;;;21.87;42.27832;962.4811;;;;
2019/08/14 15:05:00;;;;;;;2.1;1.1;;;;;;;21.94;40.86914;962.4295;;;;
2019/08/14 15:07:26;;;;;;;2.1;1.4;;;;;;;21.76;41.08789;962.4135;;;;
2019/08/14 15:09:51;;;;;;;2.8;1.3;;;;;;;21.71;43.57422;962.3331;;;;
2019/08/14 15:12:16;;;;;;;2.8;1.2;;;;;;;21.75;41.59473;962.3267;;;;
2019/08/14 15:14:41;;;;;;;2.5;1.2;;;;;;;21.75;40.09473;962.3922;;;;
2019/08/14 15:17:06;;;;;;;2.4;1.3;;;;;;;22.33;39.00098;962.3118;;;;
2019/08/14 15:19:32;;;;;;;2.7;1.2;;;;;;;22.78;37.72656;962.3036;;;;
2019/08/14 15:21:57;;;;;;;3.3;1.3;;;;;;;22.38;38.05957;962.3019;;;;
2019/08/14 15:24:22;;;;;;;1.8;1.1;;;;;;;22.1;38.53223;962.3056;;;;
2019/08/14 15:26:47;;;;;;;2.1;1.1;;;;;;;22.02;41.01758;962.2629;;;;
2019/08/14 15:29:12;;;;;;;2.7;1.2;;;;;;;22.18;38.95215;962.2605;;;;